Baliza Airport

BR-0051 · 马托格罗索州, 巴西

METAR BR-0051 · Baliza Airport

26 二月 18:00 LT
2h
使用的METAR站距离机场40 km。
罗盘
风向 的 风向 070° Baliza Airport 12/30
风: 4 kt, 2 beaufort

3 kt

2 kt
改变
0 ft 1.000 2.000 3.000 4.000 5.000
Cloud Cloud
FEW 2.000
METAR SBBW 262100Z 07004KT 9999 FEW020 32/26 Q1011

METAR Baliza Airport - BR-0051

Baliza Airport是,巴西中的小机场。 该机场位于纬度-16,19970和经度-52,52610。 该机场有一条跑道: 12/30. 这个机场没有ICAO代码,我们使用BR-0051作为参考。 机场在Brasilia FIR中。

该航空气象观测是针对Barra do Garças Airport在2024年2月26日 17:00, 当地时间进行的。

机场观察

风向为070°,速度为4 kt。

可见度为10 km 或者更多。

有几云在2.000 ft的高度。 没有观察到天花板。

温度和风寒是32 °C。 热指数为42。 露点为26 °C,相对湿度为71%。 海平面上的气压为1011 hPa (QNH)。

白天

今天,太阳从06:29升起,在18:56降落。 这适用于Baliza Airport,世界夏令时可能有所不同。 当地时间与世界标准时间之间的时差为-3 小时。 当前,没有夏令时有效。

公司介绍

我们没有关于这个机场的公司信息。

体会

到Vliegles.nl去找飞行课程,跳伞和其他飞行体验。 浏览页面,了解Baliza Airport附近所有可用的活动。 你也可以使用搜索功能来寻找你所在地附近的特定飞行课程、跳伞或其他飞行体验。

跑道

Id 标题 侧风 逆风 侧风 %
12/30 099°-279° 2 kt 3 kt 48 %

逆风成分最大的方向会被突出显示,并用于横风计算。 这并不一定意味着这个方向在使用。

乌云

2.000 ft FEW 几云

温度 & 天气

温度 32 °C
露点 26 °C
相对湿度 71%
热度指数 42 °C
Kp-index 1 (0-9)

白天

日出
06:28 (9:58)
中午
12:42
日落
18:56

小工具

你想在你的网站上有一个关于Baliza Airport的当前航空天气(METAR)的小部件吗?

显示HTML代码
?>